Time;durP1;ratioP1;P1;durP2;ratioP2;P2;SDS_P1;SDS_P2;PMS_P1;PMS_P2;Temp;Humidity;BMP_temperature;BMP_pressure;BME280_temperature;BME280_humidity;BME280_pressure;Samples;Min_cycle;Max_cycle;Signal;HPM_P1;HPM_P2
2022/03/16 00:13:52;;;;;;;;;;;;;;;;;;;;;
2022/03/16 00:22:59;;;;;;;;;;;;;;;;;;;;;
2022/03/16 05:20:32;;;;;;;;;24.50;12.50;;;;;;;;2;261081143;261081143;-83
2022/03/16 05:39:10;;;;;;;;;17.50;13.00;;;;;;;;2;261080389;261080389;-88
2022/03/16 05:47:27;;;;;;;;;25.50;25.50;;;;;;;;2;261075387;261075387;-89
2022/03/16 06:05:25;;;;;;;;;26.00;14.00;;;;;;;;2;261096643;261096643;-89
2022/03/16 06:14:25;;;;;;;;;17.00;17.00;;;;;;;;2;261083501;261083501;-88
2022/03/16 06:22:43;;;;;;;;;17.00;14.00;;;;;;;;2;261078076;261078076;-89
2022/03/16 06:31:48;;;;;;;;;22.00;16.50;;;;;;;;2;261078451;261078451;-88
2022/03/16 06:40:07;;;;;;;;;21.50;18.00;;;;;;;;2;261077931;261077931;-85
2022/03/16 06:49:08;;;;;;;;;33.00;24.50;;;;;;;;2;261080825;261080825;-88
2022/03/16 06:57:23;;;;;;;;;20.00;17.00;;;;;;;;2;261085197;261085197;-87
2022/03/16 07:06:23;;;;;;;;;22.00;22.00;;;;;;;;2;261077255;261077255;-88
2022/03/16 07:14:39;;;;;;;;;15.00;15.00;;;;;;;;2;261079919;261079919;-87
2022/03/16 07:23:39;;;;;;;;;22.00;22.00;;;;;;;;2;261089220;261089220;-88
2022/03/16 07:31:55;;;;;;;;;25.50;17.50;;;;;;;;2;261082903;261082903;-87
2022/03/16 07:40:55;;;;;;;;;21.50;17.50;;;;;;;;2;261078238;261078238;-88
2022/03/16 07:58:55;;;;;;;;;19.50;19.50;;;;;;;;2;261085053;261085053;-85
2022/03/16 08:07:13;;;;;;;;;21.50;18.00;;;;;;;;2;261081807;261081807;-86
2022/03/16 08:16:16;;;;;;;;;23.50;23.50;;;;;;;;2;261085436;261085436;-85
2022/03/16 08:24:32;;;;;;;;;29.50;22.50;;;;;;;;2;261081185;261081185;-85
2022/03/16 08:33:33;;;;;;;;;31.00;23.00;;;;;;;;2;261082367;261082367;-85
2022/03/16 08:41:51;;;;;;;;;39.00;30.00;;;;;;;;2;261084007;261084007;-85
2022/03/16 08:50:55;;;;;;;;;41.00;24.00;;;;;;;;2;261083305;261083305;-85
2022/03/16 08:59:13;;;;;;;;;30.00;24.50;;;;;;;;2;261077006;261077006;-86
2022/03/16 09:08:14;;;;;;;;;31.50;27.50;;;;;;;;2;261085421;261085421;-85
2022/03/16 09:16:29;;;;;;;;;23.00;23.00;;;;;;;;2;261080782;261080782;-83
2022/03/16 09:25:30;;;;;;;;;29.50;24.50;;;;;;;;2;261085960;261085960;-83
2022/03/16 09:33:46;;;;;;;;;37.50;29.00;;;;;;;;2;261082686;261082686;-84
2022/03/16 09:51:43;;;;;;;;;27.00;23.50;;;;;;;;2;261081108;261081108;-84
2022/03/16 10:01:16;;;;;;;;;;;;;;;;;;;;;
2022/03/16 10:19:27;;;;;;;;;;;;;;;;;;;;;
2022/03/16 10:28:13;;;;;;;;;40.00;19.50;;;;;;;;2;261112297;261112297;-83
2022/03/16 10:56:30;;;;;;;;;;;;;;;;;;;;;
2022/03/16 11:05:22;;;;;;;;;;;;;;;;;;;;;
2022/03/16 11:33:06;;;;;;;;;28.50;28.00;;;;;;;;2;261080077;261080077;-82
2022/03/16 11:41:29;;;;;;;;;28.50;26.50;;;;;;;;2;261084494;261084494;-82
2022/03/16 11:50:29;;;;;;;;;35.00;32.00;;;;;;;;2;261082275;261082275;-83
2022/03/16 11:58:47;;;;;;;;;38.00;30.00;;;;;;;;2;261080324;261080324;-80
2022/03/16 12:08:07;;;;;;;;;29.00;25.00;;;;;;;;2;261081767;261081767;-82
2022/03/16 12:16:23;;;;;;;;;40.00;30.50;;;;;;;;2;261085908;261085908;-83
2022/03/16 12:25:26;;;;;;;;;28.50;16.50;;;;;;;;2;261076615;261076615;-82
2022/03/16 12:33:58;;;;;;;;;;;;;;;;;;;;;
2022/03/16 12:43:01;;;;;;;;;15.50;15.50;;;;;;;;2;261111024;261111024;-83
2022/03/16 12:51:45;;;;;;;;;;;;;;;;;;;;;
2022/03/16 13:01:05;;;;;;;;;24.50;24.50;;;;;;;;2;261110266;261110266;-83
2022/03/16 13:09:23;;;;;;;;;20.50;17.00;;;;;;;;2;261078386;261078386;-83
2022/03/16 13:18:41;;;;;;;;;16.00;16.00;;;;;;;;2;261078760;261078760;-83
2022/03/16 15:08:24;;;;;;;;;;;;;;;;;;;;;
2022/03/16 15:16:29;;;;;;;;;12.50;11.00;;;;;;;;2;261084281;261084281;-82
2022/03/16 15:28:51;;;;;;;;;11.50;11.50;;;;;;;;2;261079764;261079764;-82
2022/03/16 15:37:16;;;;;;;;;38.00;14.00;;;;;;;;2;261079550;261079550;-82
2022/03/16 15:46:16;;;;;;;;;39.00;27.00;;;;;;;;2;261078435;261078435;-82
2022/03/16 15:54:41;;;;;;;;;13.00;13.00;;;;;;;;2;261079120;261079120;-82
2022/03/16 16:03:41;;;;;;;;;15.50;15.50;;;;;;;;2;261081220;261081220;-82
2022/03/16 16:11:59;;;;;;;;;25.00;19.50;;;;;;;;2;261075544;261075544;-82
2022/03/16 16:21:02;;;;;;;;;12.00;12.00;;;;;;;;2;261077569;261077569;-81
2022/03/16 16:30:17;;;;;;;;;34.50;15.00;;;;;;;;2;261078696;261078696;-82
2022/03/16 16:38:50;;;;;;;;;10.50;10.50;;;;;;;;2;261079031;261079031;-82
2022/03/16 16:47:05;;;;;;;;;14.00;14.00;;;;;;;;2;261078087;261078087;-82
2022/03/16 16:56:08;;;;;;;;;28.00;14.50;;;;;;;;2;261077695;261077695;-82
2022/03/16 17:04:27;;;;;;;;;18.00;18.00;;;;;;;;2;261076987;261076987;-82
2022/03/16 17:13:30;;;;;;;;;28.00;12.00;;;;;;;;2;261077510;261077510;-82
2022/03/16 17:22:15;;;;;;;;;;;;;;;;;;;;;
2022/03/16 17:45:40;;;;;;;;;;;;;;;;;;;;;
2022/03/16 17:58:46;;;;;;;;;17.00;17.00;;;;;;;;2;261079336;261079336;-88
2022/03/16 18:25:17;;;;;;;;;25.00;13.00;;;;;;;;2;243202125;243202125;-87
2022/03/16 18:33:34;;;;;;;;;26.00;26.00;;;;;;;;2;261082429;261082429;-88
2022/03/16 18:42:34;;;;;;;;;25.00;25.00;;;;;;;;2;261091105;261091105;-90
2022/03/16 18:50:53;;;;;;;;;38.00;21.00;;;;;;;;2;261085381;261085381;-90
2022/03/16 18:59:53;;;;;;;;;28.00;16.00;;;;;;;;2;261083213;261083213;-92
